BOX449 KORD-EDDF

Flight info

Callsign BOX449
Flight time 7h 27m
Altitude 31000
Route EBAKE DCT POSTS DCT SVM DCT DERLO Q907 SIKBO DCT IPTOS DCT KEMVI/N0486F330 Q852 TAMKO Q941 AGLUK DCT CEFOU N645B RIKAL/M082F330 DCT 53N050W 5330N04000W 5330N03000W 5330N02000W DCT DOGAL/N0476F330 DCT BEXET/N0472F350 DCT DIRUM DCT MORAG DCT NUCHU L607 KONAN DCT KOK UL607 FERDI DCT REMBA DCT SPI T180 NIVNU/N0417F230 T847 IMCOM IMCOM1A
Aircraft B77L/H-SDE1E2E3FGHIJ2J3J4J5M1RWXY/LB1D1

Departure

Time 2026-04-07 08:43
Airport Chicago O'Hare International Airport (KORD)

Arrival

Time 2026-04-07 16:11
Airport Frankfurt Main Airport (EDDF)
Time Latitude Longitude Altitude Speed Heading
2026-04-07 08:03 41.96154 -87.91417 673 ft 0 kts 180°
2026-04-07 08:24 41.96167 -87.91417 673 ft 4 kts 180°
2026-04-07 08:24 41.96193 -87.91416 672 ft 2 kts 175°
2026-04-07 08:24 41.96204 -87.91419 671 ft 2 kts 141°
2026-04-07 08:24 41.96214 -87.91434 671 ft 3 kts 112°
2026-04-07 08:25 41.96221 -87.91467 672 ft 4 kts 106°
2026-04-07 08:25 41.96223 -87.91472 671 ft 4 kts 105°
2026-04-07 08:25 41.96219 -87.91440 672 ft 4 kts 94°
2026-04-07 08:25 41.96219 -87.91416 673 ft 1 kts 91°
2026-04-07 08:26 41.96218 -87.91382 673 ft 4 kts 91°
2026-04-07 08:26 41.96217 -87.91348 673 ft 4 kts 91°
2026-04-07 08:26 41.96217 -87.91314 673 ft 4 kts 91°
2026-04-07 08:26 41.96216 -87.91279 673 ft 4 kts 91°
2026-04-07 08:27 41.96216 -87.91268 673 ft 0 kts 91°
2026-04-07 08:30 41.96216 -87.91265 673 ft 2 kts 90°
2026-04-07 08:30 41.96218 -87.91205 673 ft 10 kts 89°
2026-04-07 08:30 41.96220 -87.91067 673 ft 17 kts 89°
2026-04-07 08:31 41.96221 -87.90923 673 ft 15 kts 89°
2026-04-07 08:31 41.96247 -87.90788 673 ft 15 kts 56°
2026-04-07 08:31 41.96311 -87.90676 673 ft 15 kts 53°
2026-04-07 08:31 41.96376 -87.90564 673 ft 15 kts 51°
2026-04-07 08:32 41.96410 -87.90435 673 ft 15 kts 85°
2026-04-07 08:32 41.96412 -87.90293 671 ft 15 kts 89°
2026-04-07 08:32 41.96424 -87.90162 673 ft 13 kts 56°
2026-04-07 08:32 41.96507 -87.90134 673 ft 13 kts 360°
2026-04-07 08:33 41.96597 -87.90134 674 ft 13 kts 360°
2026-04-07 08:33 41.96687 -87.90134 673 ft 13 kts 356°
2026-04-07 08:33 41.96738 -87.90218 673 ft 13 kts 277°
2026-04-07 08:33 41.96739 -87.90370 673 ft 20 kts 269°
2026-04-07 08:34 41.96738 -87.90593 672 ft 27 kts 270°
2026-04-07 08:34 41.96738 -87.90842 673 ft 27 kts 270°
2026-04-07 08:34 41.96738 -87.91093 673 ft 27 kts 270°
2026-04-07 08:34 41.96738 -87.91344 673 ft 27 kts 269°
2026-04-07 08:35 41.96737 -87.91594 673 ft 27 kts 270°
2026-04-07 08:35 41.96736 -87.91841 673 ft 27 kts 270°
2026-04-07 08:35 41.96736 -87.92092 673 ft 27 kts 270°
2026-04-07 08:35 41.96736 -87.92342 673 ft 27 kts 270°
2026-04-07 08:36 41.96736 -87.92574 672 ft 22 kts 269°
2026-04-07 08:36 41.96734 -87.92770 673 ft 21 kts 270°
2026-04-07 08:36 41.96735 -87.92965 673 ft 20 kts 270°
2026-04-07 08:36 41.96749 -87.93105 672 ft 13 kts 303°
2026-04-07 08:37 41.96838 -87.93132 674 ft 14 kts
2026-04-07 08:37 41.96902 -87.93131 675 ft 14 kts 359°
2026-04-07 08:37 41.97058 -87.93135 673 ft 22 kts 359°
2026-04-07 08:37 41.97168 -87.93135 673 ft 23 kts
2026-04-07 08:38 41.97294 -87.93167 673 ft 18 kts 355°
2026-04-07 08:38 41.97419 -87.93169 673 ft 19 kts 359°
2026-04-07 08:38 41.97558 -87.93167 673 ft 21 kts
2026-04-07 08:38 41.97700 -87.93166 673 ft 21 kts
2026-04-07 08:39 41.97840 -87.93167 673 ft 20 kts 360°
2026-04-07 08:39 41.97962 -87.93150 673 ft 15 kts 20°
2026-04-07 08:39 41.98066 -87.93131 673 ft 15 kts 358°
2026-04-07 08:39 41.98171 -87.93132 673 ft 15 kts
2026-04-07 08:40 41.98266 -87.93131 673 ft 11 kts 357°
2026-04-07 08:40 41.98289 -87.93134 674 ft 0 kts 354°
2026-04-07 08:41 41.98350 -87.93141 675 ft 11 kts 357°
2026-04-07 08:41 41.98387 -87.93082 675 ft 9 kts 81°
2026-04-07 08:41 41.98389 -87.93059 675 ft 0 kts 86°
2026-04-07 08:42 41.98391 -87.92948 674 ft 39 kts 89°
2026-04-07 08:42 41.98391 -87.92275 671 ft 104 kts 90°
2026-04-07 08:42 41.98392 -87.91044 674 ft 157 kts 90°
2026-04-07 08:43 41.98407 -87.89528 1109 ft 155 kts 83°
2026-04-07 08:43 41.98615 -87.88105 1517 ft 160 kts 65°
2026-04-07 08:43 41.99115 -87.86757 2038 ft 161 kts 57°
2026-04-07 08:43 41.99700 -87.85444 2488 ft 167 kts 57°
2026-04-07 08:44 42.00322 -87.84038 2658 ft 185 kts 57°
2026-04-07 08:44 42.01011 -87.82480 2856 ft 202 kts 57°
2026-04-07 08:44 42.01753 -87.80807 3219 ft 214 kts 57°
2026-04-07 08:44 42.02530 -87.79000 3561 ft 231 kts 60°
2026-04-07 08:45 42.03253 -87.77006 4051 ft 242 kts 62°
2026-04-07 08:45 42.03977 -87.74909 4597 ft 252 kts 61°
2026-04-07 08:45 42.04725 -87.72740 5241 ft 259 kts 60°
2026-04-07 08:45 42.05492 -87.70528 5884 ft 263 kts 60°
2026-04-07 08:46 42.06274 -87.68278 6572 ft 266 kts 60°
2026-04-07 08:46 42.07071 -87.65998 7223 ft 270 kts 60°
2026-04-07 08:46 42.07869 -87.63718 7834 ft 274 kts 60°
2026-04-07 08:46 42.08690 -87.61378 8467 ft 278 kts 59°
2026-04-07 08:47 42.09524 -87.59002 9087 ft 282 kts 59°
2026-04-07 08:47 42.10373 -87.56584 9714 ft 286 kts 59°
2026-04-07 08:47 42.11222 -87.54170 10297 ft 292 kts 58°
2026-04-07 08:47 42.12119 -87.51627 10530 ft 310 kts 58°
2026-04-07 08:48 42.13076 -87.48919 10700 ft 331 kts 59°
2026-04-07 08:48 42.14099 -87.46018 10865 ft 351 kts 59°
2026-04-07 08:48 42.15174 -87.42956 11131 ft 369 kts 59°
2026-04-07 08:48 42.16280 -87.39783 11702 ft 375 kts 59°
2026-04-07 08:49 42.17370 -87.36641 12626 ft 374 kts 58°
2026-04-07 08:49 42.18485 -87.33433 13381 ft 378 kts 58°
2026-04-07 08:49 42.19616 -87.30187 14031 ft 385 kts 58°
2026-04-07 08:49 42.20768 -87.26883 14623 ft 392 kts 58°
2026-04-07 08:50 42.21922 -87.23569 15195 ft 398 kts 57°
2026-04-07 08:50 42.23112 -87.20144 15737 ft 405 kts 57°
2026-04-07 08:50 42.24321 -87.16660 16301 ft 412 kts 57°
2026-04-07 08:50 42.25544 -87.13132 16850 ft 418 kts 56°
2026-04-07 08:51 42.26739 -87.09505 17403 ft 429 kts 61°
2026-04-07 08:51 42.27599 -87.05617 17931 ft 445 kts 70°
2026-04-07 08:51 42.28086 -87.01428 18454 ft 459 kts 79°
2026-04-07 08:51 42.28224 -86.97073 18934 ft 468 kts 83°
2026-04-07 08:52 42.28284 -86.92626 19421 ft 473 kts 84°
2026-04-07 08:52 42.28320 -86.88150 19979 ft 477 kts 84°
2026-04-07 08:52 42.28358 -86.83713 20503 ft 480 kts 84°
2026-04-07 08:52 42.28406 -86.79178 20999 ft 485 kts 84°
2026-04-07 08:53 42.28466 -86.74593 21480 ft 489 kts 83°
2026-04-07 08:53 42.28534 -86.69977 21964 ft 494 kts 83°
2026-04-07 08:53 42.28607 -86.65323 22445 ft 498 kts 83°
2026-04-07 08:53 42.28681 -86.60604 22919 ft 503 kts 83°
2026-04-07 08:54 42.28755 -86.55854 23392 ft 508 kts 84°
2026-04-07 08:54 42.28826 -86.51071 23857 ft 513 kts 84°
2026-04-07 08:54 42.28895 -86.46286 24267 ft 517 kts 84°
2026-04-07 08:54 42.28963 -86.41411 24670 ft 521 kts 84°
2026-04-07 08:55 42.29028 -86.36481 25079 ft 525 kts 84°
2026-04-07 08:55 42.29092 -86.31531 25491 ft 528 kts 84°
2026-04-07 08:55 42.29153 -86.26558 25898 ft 532 kts 84°
2026-04-07 08:55 42.29213 -86.21538 26283 ft 536 kts 84°
2026-04-07 08:56 42.29272 -86.16477 26656 ft 540 kts 84°
2026-04-07 08:56 42.29329 -86.11379 27056 ft 544 kts 84°
2026-04-07 08:56 42.29384 -86.06301 27443 ft 547 kts 84°
2026-04-07 08:56 42.29436 -86.01132 27828 ft 551 kts 84°
2026-04-07 08:57 42.29487 -85.95944 28204 ft 555 kts 84°
2026-04-07 08:57 42.29536 -85.90694 28573 ft 558 kts 84°
2026-04-07 08:57 42.29583 -85.85447 28915 ft 562 kts 84°
2026-04-07 08:57 42.29628 -85.80133 29274 ft 565 kts 84°
2026-04-07 08:58 42.29670 -85.74874 29630 ft 569 kts 84°
2026-04-07 08:58 42.29710 -85.69515 29974 ft 572 kts 84°
2026-04-07 08:58 42.29748 -85.64126 30297 ft 576 kts 84°
2026-04-07 08:58 42.29784 -85.58701 30576 ft 579 kts 84°
2026-04-07 08:59 42.29817 -85.53247 30823 ft 581 kts 84°
2026-04-07 08:59 42.29847 -85.47783 31080 ft 581 kts 85°
2026-04-07 08:59 42.29874 -85.42311 31322 ft 582 kts 85°
2026-04-07 09:00 42.29923 -85.31318 31414 ft 585 kts 85°
2026-04-07 09:00 42.29960 -85.20409 31446 ft 582 kts 85°
2026-04-07 09:01 42.29989 -85.09502 31435 ft 580 kts 85°
2026-04-07 09:01 42.30271 -84.98640 31438 ft 574 kts 78°
2026-04-07 09:02 42.31168 -84.87935 31463 ft 574 kts 77°
2026-04-07 09:02 42.32097 -84.77251 31451 ft 576 kts 77°
2026-04-07 09:03 42.32976 -84.66466 31412 ft 578 kts 78°
2026-04-07 09:03 42.33821 -84.55629 31406 ft 578 kts 78°
2026-04-07 09:04 42.34652 -84.44806 31407 ft 578 kts 78°
2026-04-07 09:04 42.35473 -84.34042 31415 ft 578 kts 78°
2026-04-07 09:05 42.36290 -84.23228 31418 ft 577 kts 78°
2026-04-07 09:05 42.37096 -84.12418 31431 ft 576 kts 79°
2026-04-07 09:06 42.37886 -84.01697 31425 ft 576 kts 79°
2026-04-07 09:06 42.38670 -83.90899 31417 ft 575 kts 79°
2026-04-07 09:07 42.39443 -83.80117 31421 ft 575 kts 79°
2026-04-07 09:07 42.40202 -83.69411 31422 ft 575 kts 79°
2026-04-07 09:08 42.41376 -83.58752 31426 ft 567 kts 70°
2026-04-07 09:08 42.43706 -83.48687 31426 ft 556 kts 61°
2026-04-07 09:09 42.46478 -83.38903 31428 ft 556 kts 61°
2026-04-07 09:09 42.49215 -83.29126 31420 ft 557 kts 62°
2026-04-07 09:10 42.51916 -83.19273 31420 ft 557 kts 62°
2026-04-07 09:10 42.54583 -83.09433 31419 ft 557 kts 62°
2026-04-07 09:11 42.57251 -82.99550 31417 ft 557 kts 62°
2026-04-07 09:11 42.59898 -82.89721 31400 ft 557 kts 63°
2026-04-07 09:12 42.62552 -82.79837 31402 ft 556 kts 63°
2026-04-07 09:12 42.65184 -82.69994 31403 ft 556 kts 63°
2026-04-07 09:13 42.67820 -82.60094 31409 ft 555 kts 63°
2026-04-07 09:13 42.70429 -82.50257 31413 ft 555 kts 63°
2026-04-07 09:14 42.73046 -82.40347 31406 ft 554 kts 63°
2026-04-07 09:14 42.75631 -82.30521 31405 ft 553 kts 64°
2026-04-07 09:15 42.78206 -82.20687 31388 ft 553 kts 64°
2026-04-07 09:15 42.80782 -82.10815 31385 ft 552 kts 64°
2026-04-07 09:16 42.83336 -82.00983 31385 ft 552 kts 64°
2026-04-07 09:16 42.85894 -81.91098 31370 ft 552 kts 64°
2026-04-07 09:17 42.88439 -81.81222 31375 ft 552 kts 64°
2026-04-07 09:17 42.90983 -81.71305 31365 ft 552 kts 65°
2026-04-07 09:18 42.93503 -81.61442 31362 ft 553 kts 65°
2026-04-07 09:18 42.97286 -81.46560 31329 ft 553 kts 65°
2026-04-07 09:19 42.99799 -81.36617 31310 ft 552 kts 65°
2026-04-07 09:19 43.02282 -81.26757 31299 ft 552 kts 65°
2026-04-07 09:20 43.04775 -81.16812 31301 ft 552 kts 65°
2026-04-07 09:20 43.07391 -81.06954 31298 ft 547 kts 60°
2026-04-07 09:21 43.10084 -80.99115 31307 ft 545 kts 58°
2026-04-07 09:21 43.13934 -80.88243 31311 ft 545 kts 58°
2026-04-07 09:22 43.16669 -80.80405 31306 ft 546 kts 58°
2026-04-07 09:22 43.19918 -80.70962 31304 ft 546 kts 59°
2026-04-07 09:23 43.23124 -80.61572 31281 ft 546 kts 59°
2026-04-07 09:23 43.26348 -80.52111 31255 ft 546 kts 59°
2026-04-07 09:24 43.29544 -80.42706 31242 ft 545 kts 59°
2026-04-07 09:24 43.32754 -80.33229 31229 ft 545 kts 59°
2026-04-07 09:25 43.35926 -80.23834 31229 ft 545 kts 59°
2026-04-07 09:25 43.39121 -80.14337 31233 ft 546 kts 59°
2026-04-07 09:26 43.42286 -80.04895 31243 ft 547 kts 60°
2026-04-07 09:26 43.45238 -79.96060 31251 ft 548 kts 60°
2026-04-07 09:27 43.48388 -79.86595 31229 ft 549 kts 60°
2026-04-07 09:27 43.51544 -79.77082 31194 ft 550 kts 60°
2026-04-07 09:28 43.54722 -79.67466 31194 ft 550 kts 60°
2026-04-07 09:28 43.57886 -79.57857 31194 ft 549 kts 61°
2026-04-07 09:29 43.61020 -79.48306 31197 ft 548 kts 61°
2026-04-07 09:29 43.64170 -79.38676 31202 ft 547 kts 61°
2026-04-07 09:30 43.67611 -79.29425 31201 ft 541 kts 54°
2026-04-07 09:30 43.71469 -79.20487 31204 ft 540 kts 53°
2026-04-07 09:31 43.75321 -79.11597 31195 ft 540 kts 54°
2026-04-07 09:31 43.79149 -79.02631 31166 ft 540 kts 54°
2026-04-07 09:32 43.82938 -78.93664 31150 ft 541 kts 55°
2026-04-07 09:32 43.86704 -78.84710 31155 ft 541 kts 55°
2026-04-07 09:33 43.90496 -78.75676 31155 ft 541 kts 55°
2026-04-07 09:33 43.94289 -78.66618 31157 ft 541 kts 55°
2026-04-07 09:34 43.98049 -78.57610 31152 ft 541 kts 56°
2026-04-07 09:34 44.01817 -78.48555 31125 ft 541 kts 56°
2026-04-07 09:35 44.05583 -78.39474 31117 ft 541 kts 56°
2026-04-07 09:35 44.09342 -78.30381 31114 ft 541 kts 56°
2026-04-07 09:36 44.13067 -78.21341 31113 ft 540 kts 56°
2026-04-07 09:36 44.16810 -78.12231 31110 ft 540 kts 56°
2026-04-07 09:37 44.20522 -78.03165 31099 ft 540 kts 56°
2026-04-07 09:37 44.24240 -77.94058 31104 ft 540 kts 56°
2026-04-07 09:38 44.27959 -77.84918 31109 ft 540 kts 57°
2026-04-07 09:38 44.31647 -77.75822 31108 ft 540 kts 57°
2026-04-07 09:39 44.35331 -77.66711 31101 ft 540 kts 57°
2026-04-07 09:39 44.39037 -77.57512 31096 ft 540 kts 57°
2026-04-07 09:40 44.42704 -77.48383 31095 ft 540 kts 57°
2026-04-07 09:40 44.46383 -77.39192 31086 ft 539 kts 57°
2026-04-07 09:41 44.50024 -77.30069 31082 ft 539 kts 57°
2026-04-07 09:41 44.53672 -77.20896 31082 ft 538 kts 58°
2026-04-07 09:42 44.57316 -77.11704 31084 ft 538 kts 58°
2026-04-07 09:42 44.60926 -77.02569 31085 ft 538 kts 58°
2026-04-07 09:43 44.64548 -76.93373 31082 ft 537 kts 58°
2026-04-07 09:43 44.68160 -76.84173 31088 ft 537 kts 58°
2026-04-07 09:44 44.71758 -76.74975 31088 ft 537 kts 58°
2026-04-07 09:44 44.75343 -76.65782 31093 ft 537 kts 58°
2026-04-07 09:45 44.78929 -76.56558 31101 ft 537 kts 58°
2026-04-07 09:45 44.82519 -76.47291 31089 ft 537 kts 59°
2026-04-07 09:46 44.86094 -76.38029 31101 ft 537 kts 59°
2026-04-07 09:46 44.89645 -76.28805 31177 ft 542 kts 59°
2026-04-07 09:47 44.91455 -76.24091 31415 ft 545 kts 59°
2026-04-07 09:47 44.93267 -76.19390 31752 ft 545 kts 58°
2026-04-07 09:47 44.95104 -76.14710 32081 ft 545 kts 58°
2026-04-07 09:47 44.96958 -76.10033 32359 ft 546 kts 58°
2026-04-07 09:48 44.98820 -76.05345 32615 ft 547 kts 58°
2026-04-07 09:48 45.00660 -76.00699 32868 ft 549 kts 58°
2026-04-07 09:48 45.02522 -75.95979 33055 ft 551 kts 58°
2026-04-07 09:48 45.04385 -75.91235 33093 ft 552 kts 58°
2026-04-07 09:49 45.08093 -75.81748 33112 ft 549 kts 58°
2026-04-07 09:49 45.11771 -75.72301 33131 ft 547 kts 58°
2026-04-07 09:50 45.15436 -75.62865 33140 ft 545 kts 58°
2026-04-07 09:50 45.19089 -75.53426 33124 ft 545 kts 59°
2026-04-07 09:51 45.22732 -75.43986 33131 ft 545 kts 59°
2026-04-07 09:51 45.26508 -75.34664 33134 ft 543 kts 53°
2026-04-07 09:52 45.31092 -75.26149 33147 ft 540 kts 47°
2026-04-07 09:52 45.35767 -75.17828 33153 ft 541 kts 48°
2026-04-07 09:53 45.40387 -75.09397 33159 ft 542 kts 49°
2026-04-07 09:53 45.45025 -75.00892 33161 ft 541 kts 48°
2026-04-07 09:54 45.49675 -74.92518 33165 ft 541 kts 48°
2026-04-07 09:54 45.54364 -74.84085 33174 ft 541 kts 48°
2026-04-07 09:55 45.59003 -74.75688 33187 ft 540 kts 48°
2026-04-07 09:55 45.63653 -74.67231 33186 ft 540 kts 49°
2026-04-07 09:56 45.68291 -74.58768 33198 ft 539 kts 49°
2026-04-07 09:56 45.72892 -74.50350 33195 ft 539 kts 49°
2026-04-07 09:57 45.77511 -74.41876 33195 ft 538 kts 49°
2026-04-07 09:57 45.82112 -74.33408 33201 ft 538 kts 49°
2026-04-07 09:58 45.86691 -74.24929 33207 ft 537 kts 49°
2026-04-07 09:58 45.91233 -74.16477 33195 ft 537 kts 49°
2026-04-07 09:59 45.95807 -74.07947 33225 ft 537 kts 49°
2026-04-07 09:59 46.00379 -73.99398 33224 ft 537 kts 49°
2026-04-07 10:00 46.04684 -73.90672 33223 ft 540 kts 57°
2026-04-07 10:00 46.08000 -73.80897 33240 ft 542 kts 66°
2026-04-07 10:01 46.10902 -73.70848 33235 ft 542 kts 66°
2026-04-07 10:01 46.13829 -73.60865 33245 ft 542 kts 65°
2026-04-07 10:02 46.16809 -73.50844 33248 ft 543 kts 65°
2026-04-07 10:02 46.19759 -73.40884 33249 ft 543 kts 66°
2026-04-07 10:03 46.22430 -73.32673 33254 ft 541 kts 60°
2026-04-07 10:03 46.26055 -73.23121 33249 ft 541 kts 59°
2026-04-07 10:04 46.29712 -73.13602 33244 ft 541 kts 59°
2026-04-07 10:04 46.33338 -73.04023 33231 ft 541 kts 59°
2026-04-07 10:05 46.36929 -72.94422 33225 ft 541 kts 60°
2026-04-07 10:05 46.40492 -72.84843 33216 ft 541 kts 60°
2026-04-07 10:06 46.44064 -72.75215 33214 ft 541 kts 60°
2026-04-07 10:06 46.47607 -72.65636 33221 ft 541 kts 60°
2026-04-07 10:07 46.51167 -72.55981 33220 ft 540 kts 60°
2026-04-07 10:07 46.54688 -72.46394 33224 ft 540 kts 60°
2026-04-07 10:08 46.58221 -72.36741 33239 ft 540 kts 60°
2026-04-07 10:08 46.61725 -72.27134 33243 ft 540 kts 60°
2026-04-07 10:09 46.65240 -72.17460 33235 ft 540 kts 60°
2026-04-07 10:09 46.68752 -72.07760 33241 ft 540 kts 60°
2026-04-07 10:10 46.72255 -71.98049 33235 ft 540 kts 60°
2026-04-07 10:10 46.75728 -71.88384 33233 ft 540 kts 60°
2026-04-07 10:11 46.79192 -71.78712 33230 ft 540 kts 60°
2026-04-07 10:11 46.82669 -71.68969 33227 ft 540 kts 60°
2026-04-07 10:12 46.86139 -71.59207 33226 ft 540 kts 60°
2026-04-07 10:12 46.89584 -71.49483 33223 ft 540 kts 60°
2026-04-07 10:13 46.93036 -71.39700 33221 ft 540 kts 60°
2026-04-07 10:13 46.96480 -71.29902 33221 ft 541 kts 61°
2026-04-07 10:14 46.99909 -71.20115 33209 ft 541 kts 61°
2026-04-07 10:14 47.03336 -71.10294 33217 ft 541 kts 61°
2026-04-07 10:15 47.06741 -71.00501 33217 ft 542 kts 61°
2026-04-07 10:15 47.10160 -70.90631 33213 ft 542 kts 61°
2026-04-07 10:16 47.13555 -70.80792 33215 ft 542 kts 61°
2026-04-07 10:16 47.16965 -70.70873 33201 ft 542 kts 61°
2026-04-07 10:17 47.20338 -70.61024 33192 ft 542 kts 61°
2026-04-07 10:17 47.23723 -70.51104 33190 ft 542 kts 61°
2026-04-07 10:18 47.27106 -70.41149 33192 ft 542 kts 62°
2026-04-07 10:18 47.30462 -70.31238 33196 ft 542 kts 62°
2026-04-07 10:19 47.35510 -70.16257 33198 ft 543 kts 62°
2026-04-07 10:20 47.38860 -70.06269 33207 ft 543 kts 62°
2026-04-07 10:20 47.42187 -69.96308 33208 ft 543 kts 62°
2026-04-07 10:21 47.45522 -69.86286 33212 ft 544 kts 62°
2026-04-07 10:21 47.48861 -69.76213 33211 ft 544 kts 62°
2026-04-07 10:22 47.52166 -69.66205 33207 ft 544 kts 62°
2026-04-07 10:22 47.55481 -69.56124 33203 ft 544 kts 62°
2026-04-07 10:23 47.58785 -69.46038 33204 ft 543 kts 62°
2026-04-07 10:23 47.62074 -69.35958 33200 ft 543 kts 62°
2026-04-07 10:24 47.65339 -69.25911 33200 ft 543 kts 63°
2026-04-07 10:24 47.68610 -69.15808 33199 ft 543 kts 63°
2026-04-07 10:25 47.71874 -69.05686 33201 ft 543 kts 63°
2026-04-07 10:25 47.75225 -68.95662 33191 ft 542 kts 60°
2026-04-07 10:26 47.78861 -68.85825 33188 ft 542 kts 58°
2026-04-07 10:26 47.82513 -68.76108 33187 ft 542 kts 59°
2026-04-07 10:27 47.86165 -68.66266 33193 ft 541 kts 59°
2026-04-07 10:27 47.89780 -68.56405 33208 ft 541 kts 59°
2026-04-07 10:28 47.93355 -68.46593 33196 ft 541 kts 59°
2026-04-07 10:28 47.96938 -68.36728 33193 ft 541 kts 59°
2026-04-07 10:29 48.00526 -68.26819 33190 ft 541 kts 59°
2026-04-07 10:29 48.04112 -68.16879 33188 ft 542 kts 59°
2026-04-07 10:30 48.07665 -68.06995 33191 ft 542 kts 59°
2026-04-07 10:30 48.11236 -67.97022 33188 ft 543 kts 60°
2026-04-07 10:31 48.14804 -67.87019 33184 ft 543 kts 60°
2026-04-07 10:31 48.18342 -67.77062 33183 ft 544 kts 60°
2026-04-07 10:32 48.21901 -67.67008 33178 ft 544 kts 60°
2026-04-07 10:32 48.25430 -67.57002 33172 ft 545 kts 60°
2026-04-07 10:33 48.28977 -67.46901 33169 ft 545 kts 60°
2026-04-07 10:33 48.32495 -67.36848 33166 ft 546 kts 60°
2026-04-07 10:34 48.36021 -67.26732 33165 ft 545 kts 60°
2026-04-07 10:34 48.39515 -67.16668 33158 ft 545 kts 61°
2026-04-07 10:35 48.43024 -67.06522 33158 ft 545 kts 61°
2026-04-07 10:35 48.46499 -66.96435 33148 ft 544 kts 61°
2026-04-07 10:36 48.49975 -66.86303 33148 ft 544 kts 61°
2026-04-07 10:36 48.53444 -66.76157 33139 ft 544 kts 61°
2026-04-07 10:37 48.56903 -66.65995 33136 ft 543 kts 62°
2026-04-07 10:37 48.60333 -66.55879 33135 ft 543 kts 62°
2026-04-07 10:38 48.63774 -66.45693 33127 ft 543 kts 62°
2026-04-07 10:38 48.67204 -66.35498 33128 ft 543 kts 62°
2026-04-07 10:39 48.70631 -66.25270 33116 ft 544 kts 62°
2026-04-07 10:39 48.74051 -66.15024 33118 ft 544 kts 62°
2026-04-07 10:40 48.77439 -66.04833 33100 ft 545 kts 62°
2026-04-07 10:40 48.80848 -65.94535 33113 ft 545 kts 62°
2026-04-07 10:41 48.84238 -65.84251 33103 ft 545 kts 62°
2026-04-07 10:41 48.87631 -65.73921 33075 ft 545 kts 62°
2026-04-07 10:42 48.91007 -65.63600 33075 ft 544 kts 62°
2026-04-07 10:42 48.94349 -65.53341 33066 ft 544 kts 62°
2026-04-07 10:43 48.97707 -65.42988 33063 ft 544 kts 62°
2026-04-07 10:43 49.00492 -65.34370 33055 ft 544 kts 63°
2026-04-07 10:44 49.04365 -65.22337 33060 ft 544 kts 63°
2026-04-07 10:44 49.07149 -65.13653 33045 ft 544 kts 63°
2026-04-07 10:45 49.10452 -65.03309 33051 ft 544 kts 63°
2026-04-07 10:45 49.13769 -64.92880 33049 ft 544 kts 63°
2026-04-07 10:46 49.17050 -64.82518 33034 ft 544 kts 63°
2026-04-07 10:46 49.20344 -64.72074 33033 ft 544 kts 63°
2026-04-07 10:47 49.23626 -64.61623 33029 ft 544 kts 63°
2026-04-07 10:47 49.26881 -64.51214 33020 ft 544 kts 64°
2026-04-07 10:48 49.30144 -64.40737 33023 ft 543 kts 64°
2026-04-07 10:48 49.33383 -64.30291 33014 ft 543 kts 64°
2026-04-07 10:49 49.36601 -64.19872 33013 ft 542 kts 64°
2026-04-07 10:49 49.39822 -64.09396 33013 ft 542 kts 64°
2026-04-07 10:50 49.43035 -63.98902 33010 ft 542 kts 64°
2026-04-07 10:50 49.46214 -63.88474 33009 ft 541 kts 64°
2026-04-07 10:51 49.49404 -63.77968 33006 ft 541 kts 65°
2026-04-07 10:51 49.52584 -63.67447 33000 ft 541 kts 65°
2026-04-07 10:52 49.55737 -63.56973 33001 ft 541 kts 65°
2026-04-07 10:52 49.58901 -63.46416 32998 ft 542 kts 65°
2026-04-07 10:53 49.62058 -63.35836 32998 ft 542 kts 65°
2026-04-07 10:53 49.65190 -63.25296 32987 ft 543 kts 65°
2026-04-07 10:54 49.68333 -63.14671 32985 ft 543 kts 65°
2026-04-07 10:54 49.71447 -63.04096 32978 ft 543 kts 66°
2026-04-07 10:55 49.74577 -62.93422 32980 ft 543 kts 66°
2026-04-07 10:55 49.77689 -62.82764 32973 ft 544 kts 66°
2026-04-07 10:56 49.80795 -62.72078 32969 ft 544 kts 66°
2026-04-07 10:56 49.83876 -62.61430 32963 ft 545 kts 66°
2026-04-07 10:57 49.86973 -62.50676 32961 ft 545 kts 66°
2026-04-07 10:57 49.90044 -62.39969 32956 ft 545 kts 66°
2026-04-07 10:58 49.93117 -62.29204 32955 ft 545 kts 66°
2026-04-07 10:58 49.96176 -62.18441 32947 ft 546 kts 66°
2026-04-07 10:59 49.99239 -62.07614 32930 ft 546 kts 66°
2026-04-07 10:59 50.02293 -61.96770 32914 ft 546 kts 67°
2026-04-07 11:00 50.05318 -61.85979 32895 ft 546 kts 67°
2026-04-07 11:00 50.08331 -61.75182 32889 ft 546 kts 67°
2026-04-07 11:01 50.11357 -61.64290 32891 ft 546 kts 67°
2026-04-07 11:01 50.14346 -61.53478 32892 ft 546 kts 67°
2026-04-07 11:02 50.17348 -61.42571 32914 ft 546 kts 67°
2026-04-07 11:02 50.20316 -61.31735 32902 ft 546 kts 68°
2026-04-07 11:03 50.23300 -61.20790 32911 ft 546 kts 68°
2026-04-07 11:03 50.26263 -61.09875 32913 ft 545 kts 68°
2026-04-07 11:04 50.29197 -60.99013 32911 ft 545 kts 68°
2026-04-07 11:04 50.32141 -60.88061 32911 ft 545 kts 68°
2026-04-07 11:05 50.35074 -60.77101 32903 ft 544 kts 68°
2026-04-07 11:05 50.37973 -60.66215 32908 ft 544 kts 68°
2026-04-07 11:06 50.40883 -60.55237 32881 ft 544 kts 68°
2026-04-07 11:06 50.43779 -60.44257 32870 ft 544 kts 68°
2026-04-07 11:07 50.46647 -60.33334 32879 ft 544 kts 68°
2026-04-07 11:07 50.49526 -60.22314 32869 ft 544 kts 69°
2026-04-07 11:08 50.52375 -60.11355 32858 ft 544 kts 69°
2026-04-07 11:08 50.55213 -60.00388 32859 ft 543 kts 69°
2026-04-07 11:09 50.58051 -59.89368 32839 ft 543 kts 69°
2026-04-07 11:09 50.60877 -59.78338 32835 ft 542 kts 69°
2026-04-07 11:10 50.63676 -59.67366 32828 ft 542 kts 69°
2026-04-07 11:10 50.66487 -59.56287 32828 ft 542 kts 69°
2026-04-07 11:11 50.69259 -59.45308 32828 ft 542 kts 69°
2026-04-07 11:11 50.72042 -59.34233 32824 ft 542 kts 70°
2026-04-07 11:12 50.74810 -59.23160 32820 ft 542 kts 70°
2026-04-07 11:12 50.77556 -59.12124 32828 ft 542 kts 70°
2026-04-07 11:13 50.80303 -59.01031 32822 ft 542 kts 70°
2026-04-07 11:13 50.83041 -58.89913 32818 ft 541 kts 70°
2026-04-07 11:14 50.85754 -58.78843 32814 ft 541 kts 70°
2026-04-07 11:14 50.88471 -58.67699 32816 ft 541 kts 70°
2026-04-07 11:15 50.91160 -58.56616 32815 ft 541 kts 70°
2026-04-07 11:15 50.93851 -58.45468 32812 ft 541 kts 70°
2026-04-07 11:16 50.96518 -58.34361 32814 ft 541 kts 70°
2026-04-07 11:16 50.99176 -58.23238 32807 ft 541 kts 71°
2026-04-07 11:17 51.01839 -58.12034 32805 ft 541 kts 71°
2026-04-07 11:17 51.04472 -58.00902 32806 ft 541 kts 71°
2026-04-07 11:18 51.07110 -57.89691 32796 ft 541 kts 71°
2026-04-07 11:18 51.09736 -57.78467 32782 ft 541 kts 71°
2026-04-07 11:19 51.12354 -57.67225 32772 ft 541 kts 71°
2026-04-07 11:19 51.14945 -57.56035 32762 ft 541 kts 71°
2026-04-07 11:20 51.17544 -57.44754 32747 ft 542 kts 71°
2026-04-07 11:20 51.20135 -57.33446 32743 ft 542 kts 71°
2026-04-07 11:21 51.22702 -57.22186 32740 ft 543 kts 71°
2026-04-07 11:21 51.25264 -57.10884 32738 ft 543 kts 71°
2026-04-07 11:22 51.27829 -56.99510 32732 ft 543 kts 71°
2026-04-07 11:22 51.30387 -56.88108 32727 ft 544 kts 72°
2026-04-07 11:23 51.32910 -56.76794 32711 ft 544 kts 72°
2026-04-07 11:23 51.35446 -56.65364 32696 ft 544 kts 72°
2026-04-07 11:24 51.37954 -56.53999 32689 ft 543 kts 72°
2026-04-07 11:24 51.40464 -56.42561 32688 ft 543 kts 72°
2026-04-07 11:25 51.44185 -56.25485 32682 ft 542 kts 72°
2026-04-07 11:25 51.46656 -56.14065 32690 ft 541 kts 72°
2026-04-07 11:26 51.49114 -56.02646 32690 ft 541 kts 72°
2026-04-07 11:26 51.51541 -55.91302 32687 ft 540 kts 73°
2026-04-07 11:27 51.53973 -55.79874 32680 ft 539 kts 73°
2026-04-07 11:27 51.56390 -55.68456 32684 ft 538 kts 73°
2026-04-07 11:28 51.58774 -55.57123 32672 ft 538 kts 73°
2026-04-07 11:28 51.61160 -55.45722 32676 ft 538 kts 73°
2026-04-07 11:29 51.63535 -55.34305 32678 ft 538 kts 73°
2026-04-07 11:29 51.65891 -55.22918 32680 ft 537 kts 73°
2026-04-07 11:30 51.68245 -55.11474 32679 ft 538 kts 73°
2026-04-07 11:30 51.70590 -55.00005 32680 ft 538 kts 73°
2026-04-07 11:31 51.72928 -54.88505 32681 ft 538 kts 73°
2026-04-07 11:31 51.75237 -54.77080 32672 ft 538 kts 73°
2026-04-07 11:32 51.77544 -54.65602 32677 ft 538 kts 74°
2026-04-07 11:32 51.79462 -54.56031 32669 ft 539 kts 73°
2026-04-07 11:33 51.82095 -54.44718 32654 ft 532 kts 78°
2026-04-07 11:33 51.82629 -54.38839 32684 ft 526 kts 91°
2026-04-07 11:33 51.82663 -54.32929 32669 ft 526 kts 93°
2026-04-07 11:34 51.83032 -54.27027 32655 ft 531 kts 78°
2026-04-07 11:34 51.84244 -54.21422 32678 ft 535 kts 66°
2026-04-07 11:34 51.87835 -54.10808 32665 ft 538 kts 60°
2026-04-07 11:35 51.91473 -54.00238 32656 ft 541 kts 63°
2026-04-07 11:35 51.94789 -53.89263 32648 ft 541 kts 66°
2026-04-07 11:36 51.97890 -53.78212 32643 ft 541 kts 67°
2026-04-07 11:36 52.00980 -53.67075 32637 ft 540 kts 67°
2026-04-07 11:37 52.04076 -53.55979 32631 ft 538 kts 66°
2026-04-07 11:37 52.07177 -53.44888 32626 ft 537 kts 66°
2026-04-07 11:38 52.10242 -53.33881 32625 ft 536 kts 67°
2026-04-07 11:38 52.13314 -53.22792 32622 ft 535 kts 67°
2026-04-07 11:39 52.16346 -53.11787 32620 ft 535 kts 67°
2026-04-07 11:39 52.19391 -53.00681 32611 ft 535 kts 67°
2026-04-07 11:40 52.22429 -52.89546 32604 ft 536 kts 67°
2026-04-07 11:40 52.25435 -52.78475 32603 ft 536 kts 67°
2026-04-07 11:41 52.28447 -52.67332 32597 ft 537 kts 67°
2026-04-07 11:41 52.31458 -52.56137 32587 ft 537 kts 68°
2026-04-07 11:42 52.34459 -52.44923 32584 ft 537 kts 68°
2026-04-07 11:42 52.37435 -52.33749 32575 ft 538 kts 68°
2026-04-07 11:43 52.40401 -52.22558 32569 ft 537 kts 68°
2026-04-07 11:43 52.43373 -52.11294 32563 ft 537 kts 68°
2026-04-07 11:44 52.46313 -52.00093 32556 ft 537 kts 68°
2026-04-07 11:44 52.49262 -51.88799 32548 ft 537 kts 68°
2026-04-07 11:45 52.52196 -51.77506 32542 ft 537 kts 68°
2026-04-07 11:45 52.55103 -51.66261 32535 ft 536 kts 68°
2026-04-07 11:46 52.57997 -51.55012 32526 ft 536 kts 68°
2026-04-07 11:46 52.60895 -51.43690 32522 ft 536 kts 68°
2026-04-07 11:47 52.63791 -51.32318 32511 ft 536 kts 69°
2026-04-07 11:47 52.66651 -51.21028 32504 ft 536 kts 69°
2026-04-07 11:48 52.69516 -51.09661 32499 ft 536 kts 69°
2026-04-07 11:48 52.72371 -50.98278 32489 ft 536 kts 69°
2026-04-07 11:49 52.75202 -50.86931 32483 ft 536 kts 69°
2026-04-07 11:49 52.78021 -50.75576 32477 ft 536 kts 69°
2026-04-07 11:50 52.80842 -50.64154 32464 ft 536 kts 69°
2026-04-07 11:50 52.83661 -50.52679 32458 ft 537 kts 69°
2026-04-07 11:51 52.86446 -50.41283 32455 ft 537 kts 69°
2026-04-07 11:51 52.89241 -50.29786 32446 ft 537 kts 69°
2026-04-07 11:52 52.92006 -50.18353 32439 ft 537 kts 70°
2026-04-07 11:52 52.94783 -50.06815 32427 ft 537 kts 70°
2026-04-07 11:53 52.97495 -49.95314 32414 ft 535 kts 74°
2026-04-07 11:53 52.98284 -49.89328 32419 ft 530 kts 86°
2026-04-07 11:53 52.98683 -49.83243 32416 ft 530 kts 88°
2026-04-07 11:54 52.99404 -49.71090 32408 ft 532 kts 86°
2026-04-07 11:54 53.00331 -49.58867 32406 ft 534 kts 85°
2026-04-07 11:55 53.01407 -49.46638 32399 ft 536 kts 84°
2026-04-07 11:55 53.02507 -49.34439 32388 ft 537 kts 84°
2026-04-07 11:56 53.03591 -49.22132 32387 ft 537 kts 85°
2026-04-07 11:56 53.04648 -49.09807 32384 ft 538 kts 85°
2026-04-07 11:57 53.05687 -48.97497 32372 ft 538 kts 85°
2026-04-07 11:57 53.06707 -48.85253 32369 ft 538 kts 85°
2026-04-07 11:58 53.07725 -48.72897 32371 ft 538 kts 85°
2026-04-07 11:58 53.08724 -48.60609 32363 ft 538 kts 85°
2026-04-07 11:59 53.09716 -48.48254 32354 ft 538 kts 85°
2026-04-07 11:59 53.10697 -48.35859 32354 ft 539 kts 85°
2026-04-07 12:00 53.11660 -48.23528 32358 ft 539 kts 86°
2026-04-07 12:00 53.12616 -48.11109 32346 ft 540 kts 86°
2026-04-07 12:01 53.13554 -47.98767 32343 ft 541 kts 86°
2026-04-07 12:01 53.14489 -47.86271 32341 ft 542 kts 86°
2026-04-07 12:02 53.15407 -47.73838 32356 ft 543 kts 86°
2026-04-07 12:02 53.16313 -47.61372 32344 ft 544 kts 86°
2026-04-07 12:03 53.17212 -47.48833 32343 ft 544 kts 86°
2026-04-07 12:03 53.18099 -47.36263 32335 ft 545 kts 86°
2026-04-07 12:04 53.18970 -47.23737 32331 ft 545 kts 87°
2026-04-07 12:04 53.19828 -47.11198 32331 ft 545 kts 87°
2026-04-07 12:05 53.20676 -46.98602 32329 ft 546 kts 87°
2026-04-07 12:05 53.21511 -46.85994 32321 ft 546 kts 87°
2026-04-07 12:06 53.22330 -46.73437 32329 ft 546 kts 87°
2026-04-07 12:06 53.23139 -46.60813 32322 ft 547 kts 88°
2026-04-07 12:07 53.23935 -46.48185 32321 ft 547 kts 88°
2026-04-07 12:07 53.24717 -46.35561 32317 ft 548 kts 88°
2026-04-07 12:08 53.25489 -46.22873 32319 ft 548 kts 88°
2026-04-07 12:08 53.26245 -46.10226 32316 ft 549 kts 88°
2026-04-07 12:09 53.26990 -45.97523 32314 ft 550 kts 88°
2026-04-07 12:09 53.27725 -45.84778 32313 ft 550 kts 88°
2026-04-07 12:10 53.28442 -45.72090 32319 ft 551 kts 88°
2026-04-07 12:10 53.29151 -45.59301 32309 ft 552 kts 89°
2026-04-07 12:11 53.29846 -45.46511 32312 ft 552 kts 89°
2026-04-07 12:11 53.30524 -45.33786 32307 ft 552 kts 89°
2026-04-07 12:12 53.31190 -45.21026 32309 ft 553 kts 89°
2026-04-07 12:12 53.31846 -45.08185 32304 ft 553 kts 89°
2026-04-07 12:13 53.32488 -44.95351 32305 ft 554 kts 89°
2026-04-07 12:13 53.33115 -44.82543 32305 ft 554 kts 89°
2026-04-07 12:14 53.33732 -44.69647 32300 ft 554 kts 90°
2026-04-07 12:14 53.34331 -44.56832 32305 ft 555 kts 90°
2026-04-07 12:15 53.34921 -44.43909 32296 ft 555 kts 90°
2026-04-07 12:15 53.35493 -44.31088 32304 ft 555 kts 90°
2026-04-07 12:16 53.36056 -44.18129 32292 ft 556 kts 90°
2026-04-07 12:16 53.36602 -44.05264 32290 ft 556 kts 90°
2026-04-07 12:17 53.37137 -43.92314 32293 ft 556 kts 90°
2026-04-07 12:17 53.37658 -43.79351 32297 ft 557 kts 91°
2026-04-07 12:18 53.38162 -43.66476 32294 ft 557 kts 91°
2026-04-07 12:18 53.38656 -43.53481 32304 ft 557 kts 91°
2026-04-07 12:19 53.39133 -43.40574 32289 ft 558 kts 91°
2026-04-07 12:19 53.39521 -43.29761 32290 ft 558 kts 91°
2026-04-07 12:20 53.39977 -43.16723 32289 ft 559 kts 91°
2026-04-07 12:20 53.40416 -43.03770 32289 ft 558 kts 91°
2026-04-07 12:21 53.40842 -42.90749 32292 ft 558 kts 92°
2026-04-07 12:21 53.41252 -42.77800 32283 ft 559 kts 92°
2026-04-07 12:22 53.41651 -42.64756 32289 ft 559 kts 92°
2026-04-07 12:22 53.42033 -42.51785 32287 ft 559 kts 92°
2026-04-07 12:23 53.42406 -42.38642 32302 ft 560 kts 92°
2026-04-07 12:23 53.42761 -42.25640 32287 ft 562 kts 92°
2026-04-07 12:24 53.43105 -42.12500 32285 ft 562 kts 93°
2026-04-07 12:24 53.43433 -41.99469 32285 ft 562 kts 93°
2026-04-07 12:25 53.43748 -41.86362 32284 ft 562 kts 93°
2026-04-07 12:25 53.44048 -41.73263 32290 ft 562 kts 93°
2026-04-07 12:26 53.44334 -41.60128 32292 ft 562 kts 94°
2026-04-07 12:26 53.44604 -41.47077 32287 ft 563 kts 94°
2026-04-07 12:27 53.44862 -41.33937 32294 ft 563 kts 94°
2026-04-07 12:27 53.45106 -41.20735 32289 ft 564 kts 94°
2026-04-07 12:28 53.45334 -41.07635 32292 ft 565 kts 94°
2026-04-07 12:29 53.45652 -40.87820 32295 ft 566 kts 95°
2026-04-07 12:29 53.45846 -40.74596 32296 ft 567 kts 95°
2026-04-07 12:30 53.46025 -40.61334 32295 ft 567 kts 95°
2026-04-07 12:30 53.46189 -40.48174 32297 ft 568 kts 95°
2026-04-07 12:31 53.46340 -40.34901 32291 ft 569 kts 95°
2026-04-07 12:31 53.46476 -40.21596 32292 ft 569 kts 95°
2026-04-07 12:32 53.46598 -40.08378 32288 ft 569 kts 96°
2026-04-07 12:32 53.46800 -39.95027 32299 ft 572 kts 93°
2026-04-07 12:33 53.47324 -39.81737 32299 ft 574 kts 91°
2026-04-07 12:33 53.47914 -39.68302 32295 ft 574 kts 92°
2026-04-07 12:34 53.48460 -39.54985 32301 ft 575 kts 92°
2026-04-07 12:34 53.48968 -39.41531 32294 ft 575 kts 92°
2026-04-07 12:35 53.49447 -39.28202 32295 ft 575 kts 93°
2026-04-07 12:35 53.49916 -39.14832 32296 ft 575 kts 93°
2026-04-07 12:36 53.50373 -39.01412 32296 ft 575 kts 93°
2026-04-07 12:36 53.50815 -38.88033 32295 ft 575 kts 93°
2026-04-07 12:37 53.51243 -38.74618 32305 ft 575 kts 93°
2026-04-07 12:37 53.51656 -38.61170 32305 ft 576 kts 93°
2026-04-07 12:38 53.52054 -38.47694 32305 ft 577 kts 94°
2026-04-07 12:38 53.52439 -38.34178 32302 ft 577 kts 94°
2026-04-07 12:39 53.52806 -38.20794 32308 ft 577 kts 94°
2026-04-07 12:39 53.53160 -38.07289 32310 ft 577 kts 94°
2026-04-07 12:40 53.53500 -37.93773 32318 ft 577 kts 94°
2026-04-07 12:40 53.53823 -37.80279 32319 ft 577 kts 94°
2026-04-07 12:41 53.54131 -37.66783 32318 ft 577 kts 94°
2026-04-07 12:41 53.54422 -37.53377 32315 ft 577 kts 94°
2026-04-07 12:42 53.54700 -37.39878 32324 ft 577 kts 94°
2026-04-07 12:42 53.54962 -37.26393 32332 ft 577 kts 94°
2026-04-07 12:43 53.55209 -37.12875 32332 ft 578 kts 94°
2026-04-07 12:43 53.55441 -36.99416 32334 ft 578 kts 94°
2026-04-07 12:44 53.55659 -36.85883 32331 ft 578 kts 94°
2026-04-07 12:44 53.55861 -36.72346 32342 ft 578 kts 94°
2026-04-07 12:45 53.56047 -36.58870 32344 ft 578 kts 94°
2026-04-07 12:45 53.56219 -36.45300 32351 ft 579 kts 94°
2026-04-07 12:46 53.56375 -36.31816 32345 ft 579 kts 95°
2026-04-07 12:46 53.56516 -36.18270 32360 ft 578 kts 95°
2026-04-07 12:47 53.56642 -36.04713 32364 ft 578 kts 95°
2026-04-07 12:47 53.56752 -35.91238 32370 ft 578 kts 95°
2026-04-07 12:48 53.56848 -35.77678 32367 ft 578 kts 95°
2026-04-07 12:48 53.56927 -35.64208 32368 ft 578 kts 95°
2026-04-07 12:49 53.56992 -35.50674 32371 ft 578 kts 95°
2026-04-07 12:49 53.57042 -35.37119 32379 ft 578 kts 95°
2026-04-07 12:50 53.57076 -35.23655 32381 ft 578 kts 95°
2026-04-07 12:50 53.57095 -35.10107 32382 ft 578 kts 95°
2026-04-07 12:51 53.57099 -34.96632 32387 ft 578 kts 95°
2026-04-07 12:51 53.57087 -34.83068 32391 ft 578 kts 95°
2026-04-07 12:52 53.57060 -34.69494 32401 ft 578 kts 95°
2026-04-07 12:52 53.57018 -34.56001 32404 ft 579 kts 95°
2026-04-07 12:53 53.56961 -34.42427 32408 ft 579 kts 95°
2026-04-07 12:53 53.56889 -34.28977 32408 ft 579 kts 95°
2026-04-07 12:54 53.56801 -34.15399 32413 ft 579 kts 95°
2026-04-07 12:54 53.56698 -34.01913 32419 ft 579 kts 95°
2026-04-07 12:55 53.56579 -33.88348 32426 ft 579 kts 95°
2026-04-07 12:55 53.56445 -33.74773 32423 ft 579 kts 96°
2026-04-07 12:56 53.56296 -33.61269 32427 ft 579 kts 96°
2026-04-07 12:56 53.56131 -33.47664 32438 ft 579 kts 96°
2026-04-07 12:57 53.55952 -33.34169 32445 ft 580 kts 96°
2026-04-07 12:57 53.55757 -33.20601 32451 ft 580 kts 96°
2026-04-07 12:58 53.55546 -33.07064 32455 ft 580 kts 96°
2026-04-07 12:58 53.55319 -32.93437 32462 ft 581 kts 96°
2026-04-07 12:59 53.55079 -32.79917 32459 ft 581 kts 96°
2026-04-07 12:59 53.54821 -32.66332 32463 ft 581 kts 96°
2026-04-07 13:00 53.54548 -32.52723 32471 ft 581 kts 96°
2026-04-07 13:00 53.54262 -32.39197 32476 ft 581 kts 96°
2026-04-07 13:01 53.53957 -32.25579 32489 ft 582 kts 96°
2026-04-07 13:01 53.53638 -32.11953 32491 ft 582 kts 96°
2026-04-07 13:02 53.53302 -31.98338 32505 ft 582 kts 96°
2026-04-07 13:02 53.52953 -31.84772 32507 ft 583 kts 96°
2026-04-07 13:03 53.52586 -31.71150 32513 ft 583 kts 96°
2026-04-07 13:03 53.52206 -31.57590 32518 ft 583 kts 96°
2026-04-07 13:04 53.51811 -31.44024 32517 ft 583 kts 96°
2026-04-07 13:04 53.51468 -31.32688 32532 ft 582 kts 96°
2026-04-07 13:05 53.51042 -31.19067 32542 ft 582 kts 96°
2026-04-07 13:05 53.50602 -31.05460 32543 ft 582 kts 96°
2026-04-07 13:06 53.50148 -30.91946 32551 ft 582 kts 96°
2026-04-07 13:06 53.49676 -30.78320 32557 ft 583 kts 96°
2026-04-07 13:07 53.49190 -30.64770 32569 ft 583 kts 96°
2026-04-07 13:07 53.48690 -30.51218 32575 ft 583 kts 96°
2026-04-07 13:08 53.48171 -30.37612 32581 ft 583 kts 96°
2026-04-07 13:08 53.47640 -30.24067 32593 ft 583 kts 96°
2026-04-07 13:09 53.47093 -30.10486 32601 ft 583 kts 96°
2026-04-07 13:09 53.46711 -29.96913 32617 ft 583 kts 89°
2026-04-07 13:10 53.47217 -29.83289 32630 ft 583 kts 85°
2026-04-07 13:10 53.47840 -29.69768 32633 ft 583 kts 85°
2026-04-07 13:11 53.48415 -29.56159 32640 ft 583 kts 86°
2026-04-07 13:11 53.48928 -29.42636 32655 ft 582 kts 86°
2026-04-07 13:12 53.49415 -29.29049 32659 ft 581 kts 86°
2026-04-07 13:12 53.49889 -29.15470 32672 ft 581 kts 86°
2026-04-07 13:13 53.50349 -29.01987 32671 ft 580 kts 86°
2026-04-07 13:13 53.50797 -28.88445 32686 ft 579 kts 86°
2026-04-07 13:14 53.51227 -28.74993 32694 ft 579 kts 86°
2026-04-07 13:14 53.51644 -28.61439 32708 ft 578 kts 86°
2026-04-07 13:15 53.52042 -28.47993 32725 ft 578 kts 86°
2026-04-07 13:15 53.52427 -28.34491 32728 ft 577 kts 86°
2026-04-07 13:16 53.52795 -28.21065 32737 ft 577 kts 86°
2026-04-07 13:16 53.53149 -28.07565 32747 ft 576 kts 86°
2026-04-07 13:17 53.53487 -27.94096 32759 ft 576 kts 86°
2026-04-07 13:17 53.53809 -27.80699 32793 ft 575 kts 86°
2026-04-07 13:18 53.54117 -27.67225 32770 ft 576 kts 86°
2026-04-07 13:18 53.54408 -27.53863 32787 ft 575 kts 86°
2026-04-07 13:19 53.54685 -27.40412 32796 ft 574 kts 86°
2026-04-07 13:19 53.54947 -27.26979 32804 ft 573 kts 86°
2026-04-07 13:20 53.55193 -27.13634 32815 ft 573 kts 86°
2026-04-07 13:20 53.55424 -27.00214 32817 ft 573 kts 86°
2026-04-07 13:21 53.55640 -26.86895 32833 ft 572 kts 86°
2026-04-07 13:21 53.55841 -26.73508 32842 ft 572 kts 86°
2026-04-07 13:22 53.56027 -26.60126 32846 ft 571 kts 86°
2026-04-07 13:22 53.56198 -26.46751 32870 ft 570 kts 86°
2026-04-07 13:23 53.56353 -26.33494 32857 ft 569 kts 86°
2026-04-07 13:23 53.56494 -26.20148 32870 ft 568 kts 86°
2026-04-07 13:24 53.56620 -26.06850 32874 ft 567 kts 86°
2026-04-07 13:24 53.56731 -25.93641 32880 ft 566 kts 86°
2026-04-07 13:25 53.56827 -25.80389 32903 ft 565 kts 86°
2026-04-07 13:25 53.56908 -25.67171 32894 ft 564 kts 86°
2026-04-07 13:26 53.56975 -25.54016 32898 ft 563 kts 86°
2026-04-07 13:26 53.57027 -25.40849 32916 ft 562 kts 86°
2026-04-07 13:27 53.57064 -25.27769 32908 ft 561 kts 86°
2026-04-07 13:27 53.57088 -25.14599 32916 ft 559 kts 86°
2026-04-07 13:28 53.57096 -25.01580 32929 ft 558 kts 86°
2026-04-07 13:28 53.57091 -24.88507 32935 ft 557 kts 87°
2026-04-07 13:29 53.57071 -24.75474 32941 ft 556 kts 87°
2026-04-07 13:29 53.57038 -24.62533 32952 ft 555 kts 87°
2026-04-07 13:30 53.56990 -24.49519 32961 ft 554 kts 87°
2026-04-07 13:30 53.56929 -24.36619 32955 ft 553 kts 87°
2026-04-07 13:31 53.56854 -24.23677 32968 ft 552 kts 87°
2026-04-07 13:31 53.56764 -24.10755 32965 ft 550 kts 87°
2026-04-07 13:32 53.56661 -23.97869 32982 ft 549 kts 87°
2026-04-07 13:32 53.56546 -23.85120 32990 ft 548 kts 87°
2026-04-07 13:33 53.56417 -23.72352 32996 ft 546 kts 87°
2026-04-07 13:33 53.56197 -23.53167 32999 ft 544 kts 88°
2026-04-07 13:34 53.56035 -23.40484 32990 ft 543 kts 88°
2026-04-07 13:34 53.55859 -23.27765 32994 ft 542 kts 88°
2026-04-07 13:35 53.55671 -23.15136 33008 ft 541 kts 88°
2026-04-07 13:35 53.55470 -23.02508 33005 ft 540 kts 88°
2026-04-07 13:36 53.55255 -22.89863 33018 ft 539 kts 88°
2026-04-07 13:36 53.55027 -22.77250 33016 ft 539 kts 88°
2026-04-07 13:37 53.54788 -22.64728 33015 ft 538 kts 88°
2026-04-07 13:37 53.54534 -22.52144 33022 ft 537 kts 88°
2026-04-07 13:38 53.54268 -22.39599 33035 ft 536 kts 88°
2026-04-07 13:38 53.53991 -22.27150 33024 ft 535 kts 88°
2026-04-07 13:39 53.53700 -22.14639 33030 ft 534 kts 89°
2026-04-07 13:39 53.53398 -22.02228 33052 ft 533 kts 89°
2026-04-07 13:40 53.53081 -21.89771 33051 ft 532 kts 89°
2026-04-07 13:40 53.52754 -21.77388 33044 ft 531 kts 89°
2026-04-07 13:41 53.52413 -21.64967 33046 ft 531 kts 89°
2026-04-07 13:41 53.52062 -21.52651 33059 ft 530 kts 89°
2026-04-07 13:42 53.51697 -21.40259 33047 ft 529 kts 89°
2026-04-07 13:42 53.51320 -21.27939 33057 ft 529 kts 89°
2026-04-07 13:43 53.50929 -21.15565 33062 ft 529 kts 89°
2026-04-07 13:43 53.50526 -21.03227 33065 ft 528 kts 89°
2026-04-07 13:44 53.50112 -20.90928 33068 ft 528 kts 89°
2026-04-07 13:44 53.49684 -20.78600 33073 ft 527 kts 90°
2026-04-07 13:45 53.49246 -20.66337 33071 ft 527 kts 90°
2026-04-07 13:45 53.48797 -20.54111 33077 ft 527 kts 90°
2026-04-07 13:46 53.48332 -20.41819 33076 ft 526 kts 90°
2026-04-07 13:46 53.47858 -20.29610 33076 ft 526 kts 90°
2026-04-07 13:47 53.47370 -20.17317 33080 ft 525 kts 90°
2026-04-07 13:47 53.46914 -20.05150 33084 ft 523 kts 87°
2026-04-07 13:48 53.47362 -19.93004 33088 ft 516 kts 76°
2026-04-07 13:48 53.48765 -19.81312 33090 ft 513 kts 73°
2026-04-07 13:49 53.50237 -19.69565 33085 ft 513 kts 73°
2026-04-07 13:49 53.51668 -19.57795 33086 ft 513 kts 73°
2026-04-07 13:50 53.52828 -19.48000 33089 ft 513 kts 74°
2026-04-07 13:50 53.54207 -19.36191 33090 ft 514 kts 74°
2026-04-07 13:51 53.55575 -19.24381 33086 ft 514 kts 74°
2026-04-07 13:51 53.56923 -19.12641 33091 ft 513 kts 75°
2026-04-07 13:52 53.58274 -19.00786 33091 ft 513 kts 75°
2026-04-07 13:52 53.59600 -18.89042 33091 ft 513 kts 75°
2026-04-07 13:53 53.60923 -18.77210 33088 ft 513 kts 75°
2026-04-07 13:53 53.62234 -18.65378 33091 ft 513 kts 75°
2026-04-07 13:54 53.63523 -18.53624 33092 ft 512 kts 76°
2026-04-07 13:54 53.64807 -18.41810 33094 ft 512 kts 76°
2026-04-07 13:55 53.66078 -18.29997 33093 ft 512 kts 76°
2026-04-07 13:55 53.67330 -18.18246 33090 ft 511 kts 76°
2026-04-07 13:56 53.68577 -18.06428 33093 ft 511 kts 77°
2026-04-07 13:56 53.69813 -17.94595 33092 ft 510 kts 77°
2026-04-07 13:57 53.71027 -17.82860 33087 ft 510 kts 77°
2026-04-07 13:57 53.72236 -17.71051 33091 ft 509 kts 77°
2026-04-07 13:58 53.73434 -17.59236 33091 ft 509 kts 78°
2026-04-07 13:58 53.74618 -17.47432 33092 ft 509 kts 78°
2026-04-07 13:59 53.75784 -17.35688 33087 ft 509 kts 78°
2026-04-07 13:59 53.76945 -17.23863 33089 ft 508 kts 79°
2026-04-07 14:00 53.78087 -17.12120 33087 ft 508 kts 79°
2026-04-07 14:00 53.79223 -17.00302 33085 ft 508 kts 79°
2026-04-07 14:01 53.80349 -16.88474 33085 ft 508 kts 79°
2026-04-07 14:01 53.81454 -16.76724 33096 ft 508 kts 80°
2026-04-07 14:02 53.82638 -16.64887 33092 ft 508 kts 78°
2026-04-07 14:02 53.83988 -16.53110 33085 ft 508 kts 78°
2026-04-07 14:03 53.85332 -16.41347 33087 ft 508 kts 79°
2026-04-07 14:03 53.86626 -16.29641 33088 ft 508 kts 79°
2026-04-07 14:04 53.87905 -16.17826 33083 ft 508 kts 80°
2026-04-07 14:04 53.89160 -16.06110 33079 ft 507 kts 80°
2026-04-07 14:05 53.90412 -15.94321 33082 ft 507 kts 81°
2026-04-07 14:05 53.91653 -15.82538 33078 ft 507 kts 81°
2026-04-07 14:06 53.92875 -15.70816 33079 ft 506 kts 82°
2026-04-07 14:06 53.94094 -15.59010 33077 ft 506 kts 82°
2026-04-07 14:07 53.95290 -15.47300 33079 ft 506 kts 82°
2026-04-07 14:07 53.96484 -15.35491 33076 ft 506 kts 83°
2026-04-07 14:08 53.97659 -15.23760 33078 ft 506 kts 83°
2026-04-07 14:08 53.98831 -15.11936 33076 ft 506 kts 84°
2026-04-07 14:09 53.99923 -15.00163 33076 ft 504 kts 88°
2026-04-07 14:09 54.00141 -14.88339 33081 ft 500 kts 95°
2026-04-07 14:10 54.00103 -14.76494 33070 ft 501 kts 95°
2026-04-07 14:10 54.00088 -14.64616 33070 ft 502 kts 95°
2026-04-07 14:11 54.00095 -14.52808 33070 ft 502 kts 95°
2026-04-07 14:11 54.00097 -14.40921 33070 ft 502 kts 96°
2026-04-07 14:12 54.00085 -14.29016 33068 ft 502 kts 96°
2026-04-07 14:12 54.00059 -14.17221 33064 ft 501 kts 96°
2026-04-07 14:13 54.00021 -14.05324 33277 ft 505 kts 96°
2026-04-07 14:13 53.99893 -13.99358 33689 ft 500 kts 101°
2026-04-07 14:13 53.99450 -13.93598 34130 ft 493 kts 106°
2026-04-07 14:14 53.98848 -13.87868 34486 ft 491 kts 106°
2026-04-07 14:14 53.98224 -13.82153 34719 ft 492 kts 107°
2026-04-07 14:14 53.97591 -13.76407 34946 ft 494 kts 106°
2026-04-07 14:14 53.96957 -13.70622 35001 ft 500 kts 106°
2026-04-07 14:15 53.95705 -13.59004 35054 ft 503 kts 106°
2026-04-07 14:15 53.94472 -13.47407 35052 ft 497 kts 107°
2026-04-07 14:16 53.93240 -13.35896 35053 ft 491 kts 107°
2026-04-07 14:16 53.92010 -13.24551 35057 ft 486 kts 107°
2026-04-07 14:17 53.90770 -13.13272 35056 ft 484 kts 108°
2026-04-07 14:17 53.89537 -13.02153 35056 ft 482 kts 108°
2026-04-07 14:18 53.88289 -12.90989 35057 ft 481 kts 108°
2026-04-07 14:18 53.87033 -12.79846 35068 ft 480 kts 109°
2026-04-07 14:19 53.85775 -12.68782 35054 ft 480 kts 109°
2026-04-07 14:19 53.84500 -12.57667 35048 ft 479 kts 109°
2026-04-07 14:20 53.83224 -12.46638 35055 ft 479 kts 109°
2026-04-07 14:20 53.81931 -12.35556 35051 ft 479 kts 109°
2026-04-07 14:21 53.80629 -12.24488 35044 ft 478 kts 110°
2026-04-07 14:21 53.79328 -12.13525 35044 ft 478 kts 110°
2026-04-07 14:22 53.78010 -12.02508 35046 ft 478 kts 110°
2026-04-07 14:22 53.76678 -11.91474 35037 ft 478 kts 110°
2026-04-07 14:23 53.75345 -11.80512 35033 ft 478 kts 110°
2026-04-07 14:23 53.73995 -11.69500 35034 ft 478 kts 110°
2026-04-07 14:24 53.72632 -11.58476 35026 ft 478 kts 110°
2026-04-07 14:24 53.71268 -11.47530 35025 ft 478 kts 110°
2026-04-07 14:25 53.69885 -11.36519 35026 ft 478 kts 110°
2026-04-07 14:25 53.68500 -11.25582 35021 ft 478 kts 110°
2026-04-07 14:26 53.67098 -11.14592 35014 ft 479 kts 110°
2026-04-07 14:26 53.65691 -11.03652 35012 ft 479 kts 110°
2026-04-07 14:27 53.64275 -10.92720 35012 ft 479 kts 110°
2026-04-07 14:27 53.62838 -10.81719 35014 ft 479 kts 110°
2026-04-07 14:28 53.61403 -10.70816 35013 ft 479 kts 110°
2026-04-07 14:28 53.59948 -10.59847 35034 ft 480 kts 110°
2026-04-07 14:29 53.58482 -10.48885 35010 ft 481 kts 110°
2026-04-07 14:29 53.57003 -10.37885 35008 ft 481 kts 110°
2026-04-07 14:30 53.55513 -10.26895 35011 ft 481 kts 110°
2026-04-07 14:30 53.54024 -10.15995 35014 ft 480 kts 110°
2026-04-07 14:31 53.52515 -10.05031 35015 ft 480 kts 110°
2026-04-07 14:31 53.51008 -9.94157 35014 ft 479 kts 110°
2026-04-07 14:32 53.49479 -9.83215 35005 ft 479 kts 110°
2026-04-07 14:32 53.47951 -9.72367 35008 ft 479 kts 110°
2026-04-07 14:33 53.46406 -9.61449 35009 ft 479 kts 110°
2026-04-07 14:33 53.44852 -9.50555 35006 ft 479 kts 110°
2026-04-07 14:34 53.43297 -9.39737 35018 ft 479 kts 110°
2026-04-07 14:34 53.41721 -9.28849 35008 ft 480 kts 110°
2026-04-07 14:35 53.40401 -9.19784 35010 ft 479 kts 110°
2026-04-07 14:35 53.38812 -9.08944 35008 ft 479 kts 110°
2026-04-07 14:36 53.37207 -8.98068 35006 ft 479 kts 110°
2026-04-07 14:36 53.35595 -8.87223 35007 ft 479 kts 110°
2026-04-07 14:37 53.33981 -8.76442 35013 ft 480 kts 110°
2026-04-07 14:37 53.32346 -8.65592 35002 ft 480 kts 110°
2026-04-07 14:38 53.30703 -8.54753 35008 ft 480 kts 110°
2026-04-07 14:38 53.29065 -8.44020 35015 ft 479 kts 110°
2026-04-07 14:39 53.26573 -8.27839 35015 ft 479 kts 110°
2026-04-07 14:40 53.24897 -8.17044 35020 ft 478 kts 110°
2026-04-07 14:40 53.23226 -8.06350 35022 ft 478 kts 110°
2026-04-07 14:41 53.21528 -7.95557 35026 ft 478 kts 110°
2026-04-07 14:41 53.19828 -7.84816 35030 ft 479 kts 110°
2026-04-07 14:42 53.18124 -7.74126 35031 ft 479 kts 110°
2026-04-07 14:42 53.16405 -7.63404 35023 ft 479 kts 110°
2026-04-07 14:43 53.14672 -7.52663 35020 ft 479 kts 111°
2026-04-07 14:43 53.12931 -7.41946 35036 ft 479 kts 111°
2026-04-07 14:44 53.11190 -7.31288 35034 ft 479 kts 111°
2026-04-07 14:44 53.09429 -7.20587 35025 ft 479 kts 111°
2026-04-07 14:45 53.07661 -7.09899 35041 ft 479 kts 111°
2026-04-07 14:45 53.05881 -6.99213 35044 ft 478 kts 111°
2026-04-07 14:46 53.04106 -6.88617 35039 ft 478 kts 111°
2026-04-07 14:46 53.02310 -6.77957 35040 ft 478 kts 111°
2026-04-07 14:47 53.00506 -6.67317 35057 ft 478 kts 111°
2026-04-07 14:47 52.98440 -6.56916 35055 ft 476 kts 114°
2026-04-07 14:48 52.96215 -6.46538 35059 ft 476 kts 115°
2026-04-07 14:48 52.93990 -6.36175 35055 ft 476 kts 115°
2026-04-07 14:49 52.91785 -6.25855 35069 ft 476 kts 115°
2026-04-07 14:49 52.89571 -6.15499 35068 ft 476 kts 115°
2026-04-07 14:50 52.87358 -6.05200 35076 ft 476 kts 115°
2026-04-07 14:50 52.85129 -5.94883 35073 ft 476 kts 115°
2026-04-07 14:51 52.82887 -5.84561 35081 ft 476 kts 115°
2026-04-07 14:51 52.80652 -5.74321 35078 ft 476 kts 115°
2026-04-07 14:52 52.78393 -5.64024 35084 ft 476 kts 115°
2026-04-07 14:52 52.76137 -5.53782 35080 ft 476 kts 115°
2026-04-07 14:53 52.73480 -5.43830 35085 ft 471 kts 122°
2026-04-07 14:53 52.70443 -5.34235 35084 ft 472 kts 123°
2026-04-07 14:54 52.67400 -5.24671 35086 ft 473 kts 123°
2026-04-07 14:54 52.64351 -5.15028 35085 ft 474 kts 123°
2026-04-07 14:55 52.61322 -5.05432 35081 ft 475 kts 122°
2026-04-07 14:55 52.58262 -4.95768 35081 ft 476 kts 123°
2026-04-07 14:56 52.55182 -4.86082 35085 ft 477 kts 123°
2026-04-07 14:56 52.52110 -4.76462 35079 ft 478 kts 123°
2026-04-07 14:57 52.49025 -4.66837 35075 ft 478 kts 123°
2026-04-07 14:57 52.45911 -4.57164 35068 ft 478 kts 123°
2026-04-07 14:58 52.42810 -4.47566 35061 ft 478 kts 123°
2026-04-07 14:58 52.39687 -4.37937 35068 ft 477 kts 123°
2026-04-07 14:59 52.36564 -4.28348 35069 ft 476 kts 123°
2026-04-07 14:59 52.33453 -4.18834 35063 ft 476 kts 123°
2026-04-07 15:00 52.30320 -4.09290 35071 ft 475 kts 123°
2026-04-07 15:00 52.27197 -3.99814 35076 ft 475 kts 123°
2026-04-07 15:01 52.24054 -3.90310 35082 ft 475 kts 123°
2026-04-07 15:01 52.20897 -3.80803 35096 ft 475 kts 123°
2026-04-07 15:02 52.17744 -3.71340 35100 ft 475 kts 123°
2026-04-07 15:02 52.14595 -3.61931 35105 ft 475 kts 123°
2026-04-07 15:03 52.11418 -3.52474 35119 ft 475 kts 123°
2026-04-07 15:03 52.08234 -3.43026 35120 ft 476 kts 123°
2026-04-07 15:04 52.05038 -3.33580 35131 ft 476 kts 123°
2026-04-07 15:04 52.01850 -3.24197 35140 ft 476 kts 123°
2026-04-07 15:05 51.98641 -3.14789 35174 ft 476 kts 123°
2026-04-07 15:05 51.95424 -3.05387 35200 ft 476 kts 123°
2026-04-07 15:06 51.92194 -2.95987 35221 ft 476 kts 123°
2026-04-07 15:06 51.88975 -2.86654 35233 ft 477 kts 123°
2026-04-07 15:07 51.85725 -2.77261 35229 ft 477 kts 123°
2026-04-07 15:07 51.82461 -2.67868 35230 ft 478 kts 123°
2026-04-07 15:08 51.79213 -2.58555 35210 ft 478 kts 123°
2026-04-07 15:08 51.75937 -2.49192 35156 ft 478 kts 123°
2026-04-07 15:09 51.72652 -2.39842 35172 ft 478 kts 123°
2026-04-07 15:09 51.69379 -2.30561 35152 ft 478 kts 123°
2026-04-07 15:10 51.66085 -2.21252 35147 ft 478 kts 123°
2026-04-07 15:10 51.62779 -2.11946 35175 ft 478 kts 123°
2026-04-07 15:11 51.59459 -2.02633 35179 ft 478 kts 123°
2026-04-07 15:11 51.56153 -1.93393 35181 ft 478 kts 123°
2026-04-07 15:12 51.52819 -1.84104 35169 ft 478 kts 123°
2026-04-07 15:12 51.49512 -1.74926 35175 ft 477 kts 123°
2026-04-07 15:13 51.46727 -1.65222 35172 ft 481 kts 112°
2026-04-07 15:13 51.45074 -1.54837 35164 ft 483 kts 104°
2026-04-07 15:14 51.43708 -1.44243 35177 ft 483 kts 104°
2026-04-07 15:14 51.42252 -1.33790 35180 ft 483 kts 105°
2026-04-07 15:15 51.40775 -1.23276 35187 ft 483 kts 105°
2026-04-07 15:15 51.39438 -1.12712 35189 ft 485 kts 99°
2026-04-07 15:16 51.38864 -1.01924 35185 ft 486 kts 96°
2026-04-07 15:16 51.38368 -0.91189 35188 ft 486 kts 96°
2026-04-07 15:17 51.37830 -0.80430 35185 ft 486 kts 96°
2026-04-07 15:17 51.37355 -0.71454 35185 ft 486 kts 97°
2026-04-07 15:18 51.36770 -0.60663 35188 ft 486 kts 97°
2026-04-07 15:18 51.36174 -0.49831 35212 ft 487 kts 96°
2026-04-07 15:19 51.35566 -0.39031 35213 ft 487 kts 97°
2026-04-07 15:19 51.34719 -0.28341 35217 ft 486 kts 100°
2026-04-07 15:20 51.33746 -0.17615 35234 ft 486 kts 100°
2026-04-07 15:20 51.32791 -0.06914 35242 ft 486 kts 99°
2026-04-07 15:21 51.31857 0.03814 35237 ft 486 kts 99°
2026-04-07 15:21 51.30930 0.14454 35234 ft 485 kts 99°
2026-04-07 15:22 51.29988 0.25150 35237 ft 485 kts 100°
2026-04-07 15:22 51.29513 0.30488 35106 ft 484 kts 100°
2026-04-07 15:22 51.29035 0.35829 35089 ft 484 kts 100°
2026-04-07 15:23 51.28079 0.46424 35085 ft 483 kts 100°
2026-04-07 15:23 51.27109 0.57058 35101 ft 482 kts 100°
2026-04-07 15:24 51.26132 0.67661 35130 ft 482 kts 100°
2026-04-07 15:24 51.25148 0.78238 35165 ft 481 kts 100°
2026-04-07 15:25 51.24160 0.88747 35248 ft 481 kts 101°
2026-04-07 15:25 51.23154 0.99345 35246 ft 481 kts 101°
2026-04-07 15:26 51.22149 1.09827 35246 ft 481 kts 101°
2026-04-07 15:26 51.21126 1.20390 35245 ft 481 kts 101°
2026-04-07 15:27 51.20099 1.30895 35243 ft 481 kts 101°
2026-04-07 15:27 51.19060 1.41427 35245 ft 481 kts 101°
2026-04-07 15:28 51.18007 1.51993 35245 ft 481 kts 102°
2026-04-07 15:28 51.16944 1.62555 35243 ft 481 kts 102°
2026-04-07 15:29 51.15883 1.73018 35242 ft 482 kts 102°
2026-04-07 15:29 51.14800 1.83583 35242 ft 482 kts 102°
2026-04-07 15:30 51.13713 1.94121 35242 ft 482 kts 102°
2026-04-07 15:30 51.12791 2.04676 35240 ft 485 kts 97°
2026-04-07 15:31 51.12238 2.15432 35241 ft 486 kts 97°
2026-04-07 15:31 51.11692 2.26185 35244 ft 488 kts 97°
2026-04-07 15:32 51.11109 2.36902 35247 ft 489 kts 97°
2026-04-07 15:32 51.10502 2.47692 35254 ft 490 kts 97°
2026-04-07 15:33 51.09885 2.58538 35263 ft 490 kts 97°
2026-04-07 15:33 51.08874 2.69186 35260 ft 488 kts 107°
2026-04-07 15:34 51.06982 2.79543 35267 ft 487 kts 109°
2026-04-07 15:34 51.05030 2.89932 35260 ft 487 kts 109°
2026-04-07 15:35 51.03114 3.00293 35260 ft 488 kts 108°
2026-04-07 15:35 51.01198 3.10725 35259 ft 488 kts 108°
2026-04-07 15:36 50.99301 3.21009 35259 ft 488 kts 108°
2026-04-07 15:36 50.97376 3.31369 35256 ft 488 kts 108°
2026-04-07 15:37 50.95455 3.41643 35257 ft 488 kts 109°
2026-04-07 15:37 50.93516 3.51969 35255 ft 488 kts 109°
2026-04-07 15:38 50.91565 3.62302 35258 ft 488 kts 109°
2026-04-07 15:38 50.89601 3.72614 35270 ft 488 kts 109°
2026-04-07 15:39 50.87621 3.82939 35263 ft 489 kts 109°
2026-04-07 15:39 50.85635 3.93244 35278 ft 489 kts 109°
2026-04-07 15:40 50.83638 4.03558 35273 ft 489 kts 109°
2026-04-07 15:40 50.81633 4.13865 35278 ft 489 kts 109°
2026-04-07 15:41 50.79619 4.24160 35288 ft 490 kts 109°
2026-04-07 15:41 50.77594 4.34454 35293 ft 490 kts 109°
2026-04-07 15:42 50.75560 4.44738 35286 ft 490 kts 109°
2026-04-07 15:42 50.72502 4.60099 35289 ft 490 kts 109°
2026-04-07 15:43 50.70445 4.70370 35293 ft 490 kts 109°
2026-04-07 15:43 50.68386 4.80596 35287 ft 490 kts 109°
2026-04-07 15:44 50.66310 4.90859 35290 ft 490 kts 109°
2026-04-07 15:44 50.64230 5.01054 35288 ft 491 kts 109°
2026-04-07 15:45 50.62125 5.11316 35289 ft 491 kts 109°
2026-04-07 15:45 50.60024 5.21518 35294 ft 491 kts 109°
2026-04-07 15:46 50.57900 5.31778 35295 ft 492 kts 109°
2026-04-07 15:46 50.55779 5.41975 35259 ft 486 kts 109°
2026-04-07 15:47 50.54744 5.46935 35138 ft 477 kts 109°
2026-04-07 15:47 50.53712 5.51871 34857 ft 471 kts 109°
2026-04-07 15:47 50.52689 5.56750 34423 ft 467 kts 109°
2026-04-07 15:47 50.51671 5.61587 33945 ft 463 kts 109°
2026-04-07 15:48 50.50693 5.66392 33476 ft 459 kts 107°
2026-04-07 15:48 50.49805 5.71102 33030 ft 455 kts 107°
2026-04-07 15:48 50.48930 5.75894 32574 ft 450 kts 106°
2026-04-07 15:48 50.48072 5.80601 32131 ft 446 kts 106°
2026-04-07 15:49 50.47214 5.85266 31703 ft 442 kts 106°
2026-04-07 15:49 50.46353 5.89895 31286 ft 439 kts 106°
2026-04-07 15:49 50.45503 5.94422 30829 ft 435 kts 106°
2026-04-07 15:49 50.44644 5.98970 30425 ft 432 kts 106°
2026-04-07 15:50 50.43791 6.03470 29949 ft 429 kts 106°
2026-04-07 15:50 50.42940 6.07947 29485 ft 425 kts 106°
2026-04-07 15:50 50.42096 6.12374 29065 ft 421 kts 106°
2026-04-07 15:50 50.41260 6.16755 28627 ft 417 kts 106°
2026-04-07 15:51 50.40746 6.19641 28337 ft 415 kts 102°
2026-04-07 15:51 50.40205 6.24083 27897 ft 411 kts 98°
2026-04-07 15:51 50.39615 6.29914 27332 ft 407 kts 97°
2026-04-07 15:51 50.39182 6.34297 26916 ft 404 kts 97°
2026-04-07 15:52 50.38892 6.37189 26638 ft 403 kts 97°
2026-04-07 15:52 50.38450 6.41493 26242 ft 400 kts 98°
2026-04-07 15:52 50.37997 6.45813 25844 ft 398 kts 98°
2026-04-07 15:52 50.37544 6.50063 25443 ft 396 kts 98°
2026-04-07 15:53 50.37085 6.54324 25048 ft 394 kts 98°
2026-04-07 15:53 50.36626 6.58569 24621 ft 397 kts 98°
2026-04-07 15:53 50.36161 6.62859 24199 ft 401 kts 97°
2026-04-07 15:53 50.35696 6.67127 23756 ft 402 kts 97°
2026-04-07 15:54 50.35224 6.71445 23259 ft 402 kts 97°
2026-04-07 15:54 50.34751 6.75775 22755 ft 401 kts 97°
2026-04-07 15:54 50.34276 6.80081 22268 ft 400 kts 98°
2026-04-07 15:54 50.33802 6.84362 21807 ft 398 kts 98°
2026-04-07 15:55 50.33100 6.88536 21338 ft 397 kts 110°
2026-04-07 15:55 50.31937 6.92436 20891 ft 395 kts 115°
2026-04-07 15:55 50.30688 6.96260 20451 ft 393 kts 115°
2026-04-07 15:55 50.29501 7.00033 20009 ft 390 kts 114°
2026-04-07 15:56 50.28337 7.03859 19584 ft 388 kts 114°
2026-04-07 15:56 50.27193 7.07686 19159 ft 385 kts 113°
2026-04-07 15:56 50.26081 7.11413 18703 ft 372 kts 113°
2026-04-07 15:56 50.25004 7.15021 18193 ft 359 kts 113°
2026-04-07 15:57 50.23954 7.18528 17699 ft 357 kts 113°
2026-04-07 15:57 50.22899 7.22050 17215 ft 358 kts 113°
2026-04-07 15:57 50.21853 7.25538 16742 ft 359 kts 113°
2026-04-07 15:57 50.20778 7.29109 16262 ft 358 kts 113°
2026-04-07 15:58 50.19735 7.32571 15801 ft 357 kts 113°
2026-04-07 15:58 50.18772 7.36137 15354 ft 355 kts 109°
2026-04-07 15:58 50.17917 7.39753 14885 ft 354 kts 108°
2026-04-07 15:58 50.17090 7.43358 14454 ft 353 kts 108°
2026-04-07 15:59 50.16254 7.46966 14007 ft 352 kts 108°
2026-04-07 15:59 50.15420 7.50547 13492 ft 351 kts 108°
2026-04-07 15:59 50.14589 7.54116 13020 ft 350 kts 108°
2026-04-07 15:59 50.13769 7.57640 12534 ft 349 kts 108°
2026-04-07 16:00 50.12944 7.61187 12073 ft 347 kts 108°
2026-04-07 16:00 50.11972 7.64572 11629 ft 343 kts 118°
2026-04-07 16:00 50.10697 7.67722 11197 ft 341 kts 122°
2026-04-07 16:00 50.09386 7.70709 10731 ft 328 kts 123°
2026-04-07 16:01 50.08108 7.73573 10290 ft 316 kts 123°
2026-04-07 16:01 50.06877 7.76324 9821 ft 305 kts 123°
2026-04-07 16:01 50.05676 7.78995 9321 ft 295 kts 123°
2026-04-07 16:01 50.04512 7.81568 8863 ft 288 kts 123°
2026-04-07 16:02 50.03364 7.84098 8407 ft 281 kts 123°
2026-04-07 16:02 50.02254 7.86542 7947 ft 273 kts 123°
2026-04-07 16:02 50.01166 7.88932 7532 ft 267 kts 123°
2026-04-07 16:02 50.00103 7.91253 7075 ft 262 kts 123°
2026-04-07 16:03 49.99066 7.93515 6663 ft 258 kts 123°
2026-04-07 16:03 49.98029 7.95775 6259 ft 256 kts 123°
2026-04-07 16:03 49.96995 7.98033 5880 ft 255 kts 123°
2026-04-07 16:03 49.95969 8.00275 5556 ft 252 kts 123°
2026-04-07 16:04 49.94972 8.02450 5297 ft 247 kts 123°
2026-04-07 16:04 49.94332 8.03860 5117 ft 240 kts 120°
2026-04-07 16:04 49.93813 8.05988 5035 ft 233 kts 91°
2026-04-07 16:04 49.94026 8.08480 5026 ft 235 kts 75°
2026-04-07 16:05 49.94459 8.10918 5026 ft 232 kts 72°
2026-04-07 16:05 49.94981 8.13316 5017 ft 232 kts 69°
2026-04-07 16:05 49.95528 8.15635 5012 ft 224 kts 69°
2026-04-07 16:05 49.96062 8.17850 4915 ft 217 kts 69°
2026-04-07 16:06 49.96591 8.20046 4642 ft 216 kts 69°
2026-04-07 16:06 49.97112 8.22223 4293 ft 213 kts 69°
2026-04-07 16:06 49.97633 8.24377 3967 ft 211 kts 69°
2026-04-07 16:06 49.98136 8.26465 3685 ft 207 kts 68°
2026-04-07 16:07 49.98633 8.28546 3370 ft 203 kts 69°
2026-04-07 16:07 49.99119 8.30576 3087 ft 199 kts 69°
2026-04-07 16:07 49.99597 8.32576 2826 ft 195 kts 69°
2026-04-07 16:07 50.00055 8.34486 2520 ft 182 kts 68°
2026-04-07 16:08 50.00482 8.36258 2289 ft 167 kts 69°
2026-04-07 16:08 50.00870 8.37883 2027 ft 151 kts 68°
2026-04-07 16:08 50.01221 8.39341 1851 ft 142 kts 69°
2026-04-07 16:08 50.01561 8.40773 1643 ft 142 kts 68°
2026-04-07 16:09 50.01910 8.42218 1437 ft 142 kts 68°
2026-04-07 16:09 50.02273 8.43669 1166 ft 145 kts 68°
2026-04-07 16:09 50.02624 8.45112 954 ft 142 kts 68°
2026-04-07 16:09 50.02964 8.46561 774 ft 143 kts 68°
2026-04-07 16:10 50.03293 8.48025 620 ft 146 kts 68°
2026-04-07 16:10 50.03649 8.49499 393 ft 144 kts 67°
2026-04-07 16:10 50.03992 8.50891 327 ft 118 kts 69°
2026-04-07 16:10 50.04196 8.51741 349 ft 57 kts 69°
2026-04-07 16:11 50.04239 8.52160 339 ft 28 kts 95°
2026-04-07 16:11 50.04219 8.52334 350 ft 13 kts 102°
2026-04-07 16:11 50.04162 8.52404 355 ft 9 kts 190°
2026-04-07 16:11 50.04120 8.52329 354 ft 10 kts 245°
2026-04-07 16:12 50.04089 8.52218 354 ft 12 kts 248°
2026-04-07 16:12 50.04058 8.52088 351 ft 14 kts 250°
2026-04-07 16:12 50.04021 8.51932 334 ft 16 kts 250°
2026-04-07 16:12 50.03982 8.51766 337 ft 16 kts 250°
2026-04-07 16:13 50.03943 8.51600 334 ft 16 kts 250°
2026-04-07 16:13 50.03904 8.51435 335 ft 16 kts 250°
2026-04-07 16:13 50.03863 8.51270 350 ft 16 kts 248°
2026-04-07 16:13 50.03785 8.51151 354 ft 16 kts 196°
2026-04-07 16:14 50.03685 8.51210 363 ft 16 kts 132°
2026-04-07 16:14 50.03629 8.51363 366 ft 16 kts 117°
2026-04-07 16:14 50.03581 8.51512 368 ft 12 kts 116°
2026-04-07 16:14 50.03534 8.51664 361 ft 18 kts 116°
2026-04-07 16:15 50.03516 8.51853 366 ft 18 kts 85°
2026-04-07 16:15 50.03529 8.52044 369 ft 17 kts 82°
2026-04-07 16:15 50.03545 8.52230 370 ft 17 kts 82°
2026-04-07 16:15 50.03574 8.52400 369 ft 15 kts 71°
2026-04-07 16:16 50.03596 8.52553 365 ft 14 kts 87°
2026-04-07 16:16 50.03613 8.52695 369 ft 13 kts 69°
2026-04-07 16:16 50.03627 8.52830 368 ft 12 kts 113°
2026-04-07 16:16 50.03585 8.52935 370 ft 10 kts 98°
2026-04-07 16:17 50.03599 8.53025 369 ft 7 kts 69°
2026-04-07 16:17 50.03617 8.53096 369 ft 7 kts 69°
2026-04-07 16:17 50.03634 8.53166 368 ft 7 kts 69°
2026-04-07 16:17 50.03652 8.53235 370 ft 6 kts 68°
2026-04-07 16:18 50.03676 8.53261 370 ft 3 kts
2026-04-07 16:18 50.03699 8.53253 368 ft 3 kts 345°
2026-04-07 16:18 50.03724 8.53242 368 ft 4 kts 342°
2026-04-07 16:18 50.03744 8.53229 369 ft 0 kts 337°